createdAt,value
2024-01-14T00:01:24.213Z,89.90
2024-01-14T00:03:51.737Z,91.39
2024-01-14T00:06:19.158Z,94.57
2024-01-14T00:08:45.892Z,95.49
2024-01-14T00:11:12.747Z,94.62
2024-01-14T00:13:39.603Z,94.51
2024-01-14T00:16:06.519Z,93.24
2024-01-14T00:18:33.493Z,94.84
2024-01-14T00:21:00.392Z,93.02
2024-01-14T00:23:27.258Z,92.74
2024-01-14T00:25:54.149Z,89.98
2024-01-14T00:28:21.033Z,92.68
2024-01-14T00:30:48.033Z,93.41
2024-01-14T00:33:14.961Z,93.89
2024-01-14T00:35:44.947Z,94.16
2024-01-14T00:38:14.895Z,93.46
2024-01-14T00:40:42.166Z,91.11
2024-01-14T00:43:09.204Z,92.72
2024-01-14T00:45:36.105Z,91.50
2024-01-14T00:48:03.449Z,92.13
2024-01-14T00:50:31.756Z,92.51
2024-01-14T00:52:58.697Z,93.18
2024-01-14T00:55:25.481Z,96.28
2024-01-14T00:57:52.276Z,97.85
2024-01-14T01:00:19.549Z,96.48
2024-01-14T01:02:46.536Z,95.89
2024-01-14T01:05:13.431Z,97.81
2024-01-14T01:07:40.463Z,98.60
2024-01-14T01:10:07.645Z,98.78
2024-01-14T01:12:35.130Z,97.42
2024-01-14T01:15:02.063Z,96.87
2024-01-14T01:17:28.904Z,93.97
2024-01-14T01:19:55.723Z,95.23
2024-01-14T01:22:22.655Z,92.25
2024-01-14T01:24:49.399Z,92.59
2024-01-14T01:27:16.498Z,91.60
2024-01-14T01:29:43.881Z,90.44
2024-01-14T01:32:11.217Z,90.59
2024-01-14T01:34:38.681Z,89.88
2024-01-14T01:37:05.987Z,92.42
2024-01-14T01:39:33.169Z,90.83
2024-01-14T01:42:00.539Z,90.48
2024-01-14T01:44:27.473Z,91.88
2024-01-14T01:46:56.077Z,91.11
2024-01-14T01:49:24.243Z,91.71
2024-01-14T01:51:51.931Z,91.84
2024-01-14T01:54:21.838Z,91.58
2024-01-14T01:56:49.932Z,90.69
2024-01-14T01:59:16.787Z,89.85
2024-01-14T02:01:46.194Z,90.00
2024-01-14T02:04:15.146Z,91.10
2024-01-14T02:06:42.787Z,92.16
2024-01-14T02:09:10.488Z,98.14
2024-01-14T02:11:38.218Z,95.55
2024-01-14T02:14:06.282Z,95.03
2024-01-14T02:16:33.149Z,96.00
2024-01-14T02:19:00.251Z,94.63
2024-01-14T02:21:38.892Z,93.65
2024-01-14T02:24:26.009Z,99.77
2024-01-14T02:26:52.966Z,100.00
2024-01-14T02:29:23.399Z,100.00
2024-01-14T02:31:50.215Z,100.00
2024-01-14T02:34:17.397Z,100.00
2024-01-14T02:36:44.310Z,100.00
2024-01-14T02:39:11.168Z,100.00
2024-01-14T02:41:37.980Z,100.00
2024-01-14T02:44:04.965Z,100.00
2024-01-14T02:46:32.129Z,100.00
2024-01-14T02:48:58.851Z,100.00
2024-01-14T02:51:25.973Z,100.00
2024-01-14T02:53:52.808Z,100.00
2024-01-14T02:56:20.035Z,100.00
2024-01-14T02:58:47.040Z,100.00
2024-01-14T03:01:14.048Z,100.00
2024-01-14T03:03:40.977Z,100.00
2024-01-14T03:06:08.746Z,100.00
2024-01-14T03:08:36.021Z,100.00
2024-01-14T03:11:02.857Z,100.00
2024-01-14T03:13:29.928Z,100.00
2024-01-14T03:15:57.061Z,100.00
2024-01-14T03:18:23.927Z,100.00
2024-01-14T03:20:50.969Z,100.00
2024-01-14T03:23:17.759Z,100.00
2024-01-14T03:25:44.600Z,100.00
2024-01-14T03:28:11.424Z,100.00
2024-01-14T03:30:38.329Z,100.00
2024-01-14T03:33:05.499Z,100.00
2024-01-14T03:35:32.256Z,100.00
2024-01-14T03:37:59.284Z,100.00
2024-01-14T03:40:26.090Z,100.00
2024-01-14T03:42:52.915Z,100.00
2024-01-14T03:45:19.714Z,100.00
2024-01-14T03:47:46.617Z,100.00
2024-01-14T03:50:13.386Z,100.00
2024-01-14T03:52:40.171Z,100.00
2024-01-14T03:55:07.086Z,100.00
2024-01-14T03:57:33.892Z,100.00
2024-01-14T04:00:00.893Z,100.00
2024-01-14T04:02:27.768Z,100.00
2024-01-14T04:04:54.517Z,100.00
2024-01-14T04:07:21.289Z,100.00
2024-01-14T04:09:48.136Z,98.57
2024-01-14T04:12:14.964Z,98.01
2024-01-14T04:14:41.835Z,98.77
2024-01-14T04:17:08.627Z,99.89
2024-01-14T04:19:36.389Z,96.99
2024-01-14T04:22:03.385Z,96.46
2024-01-14T04:24:30.422Z,95.35
2024-01-14T04:26:57.087Z,93.87
2024-01-14T04:29:23.853Z,96.84
2024-01-14T04:31:50.629Z,96.63
2024-01-14T04:34:17.503Z,97.79
2024-01-14T04:36:44.805Z,96.43
2024-01-14T04:39:11.847Z,92.85
2024-01-14T04:41:38.720Z,90.51
2024-01-14T04:44:05.639Z,90.18
2024-01-14T04:46:32.363Z,90.70
2024-01-14T04:48:59.686Z,90.97
2024-01-14T04:51:26.689Z,91.34
2024-01-14T04:53:53.489Z,90.33
2024-01-14T04:56:20.375Z,89.42
2024-01-14T04:58:47.127Z,89.00
2024-01-14T05:01:13.898Z,88.19
2024-01-14T05:03:40.812Z,89.02
2024-01-14T05:06:08.029Z,87.83
2024-01-14T05:08:35.007Z,89.47
2024-01-14T05:11:01.781Z,88.22
2024-01-14T05:13:28.613Z,91.08
2024-01-14T05:15:55.563Z,90.08
2024-01-14T05:18:22.472Z,89.65
2024-01-14T05:20:49.396Z,87.92
2024-01-14T05:23:16.177Z,88.14
2024-01-14T05:25:43.203Z,87.92
2024-01-14T05:28:09.985Z,85.63
2024-01-14T05:30:36.873Z,86.90
2024-01-14T05:33:04.030Z,85.63
2024-01-14T05:35:31.401Z,85.37
2024-01-14T05:37:58.300Z,91.98
2024-01-14T05:40:25.152Z,91.12
2024-01-14T05:42:53.129Z,90.19
2024-01-14T05:45:20.027Z,89.54
2024-01-14T05:47:46.958Z,88.12
2024-01-14T05:52:40.808Z,87.98
2024-01-14T05:55:09.436Z,89.64
2024-01-14T05:57:36.322Z,95.57
2024-01-14T06:00:04.033Z,96.52
2024-01-14T06:02:33.500Z,94.72
2024-01-14T06:05:00.492Z,99.13
2024-01-14T06:07:27.459Z,100.00
2024-01-14T06:09:54.620Z,100.00
2024-01-14T06:12:21.280Z,99.38
2024-01-14T06:14:48.285Z,100.00
2024-01-14T06:17:15.090Z,100.00
2024-01-14T06:19:42.813Z,100.00
2024-01-14T06:22:09.642Z,98.93
2024-01-14T06:24:36.483Z,99.62
2024-01-14T06:27:03.938Z,99.15
2024-01-14T06:29:30.825Z,100.00
2024-01-14T06:31:59.610Z,100.00
2024-01-14T06:34:27.095Z,100.00
2024-01-14T06:36:53.894Z,99.81
2024-01-14T06:39:20.725Z,100.00
2024-01-14T06:41:49.353Z,98.64
2024-01-14T06:44:17.440Z,100.00
2024-01-14T06:46:45.156Z,100.00
2024-01-14T06:49:12.542Z,100.00
2024-01-14T06:51:44.216Z,100.00
2024-01-14T06:54:11.074Z,100.00
2024-01-14T06:56:48.298Z,100.00
2024-01-14T06:59:19.295Z,100.00
2024-01-14T07:01:47.222Z,100.00
2024-01-14T07:04:14.677Z,100.00
2024-01-14T07:06:41.909Z,100.00
2024-01-14T07:09:12.029Z,100.00
2024-01-14T07:11:39.672Z,100.00
2024-01-14T07:14:06.456Z,100.00
2024-01-14T07:16:33.760Z,100.00
2024-01-14T07:19:00.944Z,100.00
2024-01-14T07:21:27.888Z,100.00
2024-01-14T07:23:54.794Z,100.00
2024-01-14T07:26:23.761Z,100.00
2024-01-14T07:28:54.093Z,100.00
2024-01-14T07:31:24.308Z,100.00
2024-01-14T07:33:52.668Z,100.00
2024-01-14T07:36:20.409Z,100.00
2024-01-14T07:38:47.789Z,100.00
2024-01-14T07:41:14.890Z,100.00
2024-01-14T07:43:42.463Z,100.00
2024-01-14T07:46:09.758Z,100.00
2024-01-14T07:48:37.308Z,100.00
2024-01-14T07:51:04.781Z,100.00
2024-01-14T07:53:31.630Z,100.00
2024-01-14T07:55:58.609Z,100.00
2024-01-14T07:58:26.128Z,100.00
2024-01-14T08:01:01.164Z,100.00
2024-01-14T08:03:30.967Z,100.00
2024-01-14T08:05:58.218Z,100.00
2024-01-14T08:08:25.371Z,100.00
2024-01-14T08:10:53.385Z,98.34
2024-01-14T08:13:20.927Z,99.11
2024-01-14T08:15:57.177Z,100.00
2024-01-14T08:18:29.411Z,98.88
2024-01-14T08:20:56.531Z,98.03
2024-01-14T08:23:23.416Z,97.71
2024-01-14T08:25:50.153Z,95.17
2024-01-14T08:28:16.958Z,94.11
2024-01-14T08:30:43.829Z,92.84
2024-01-14T08:33:10.948Z,95.69
2024-01-14T08:35:37.706Z,93.65
2024-01-14T08:38:05.039Z,96.28
2024-01-14T08:40:31.917Z,95.22
2024-01-14T08:42:58.704Z,95.10
2024-01-14T08:45:25.646Z,94.25
2024-01-14T08:47:52.774Z,94.08
2024-01-14T08:50:19.882Z,93.25
2024-01-14T08:52:46.697Z,93.47
2024-01-14T08:55:14.677Z,94.53
2024-01-14T08:57:42.610Z,92.95
2024-01-14T09:00:16.453Z,91.74
2024-01-14T09:02:43.282Z,94.38
2024-01-14T09:05:10.592Z,92.28
2024-01-14T09:07:37.826Z,95.85
2024-01-14T09:10:06.308Z,93.66
2024-01-14T09:12:33.300Z,92.14
2024-01-14T09:15:00.315Z,94.29
2024-01-14T09:17:27.388Z,96.92
2024-01-14T09:19:54.625Z,96.22
2024-01-14T09:22:21.579Z,96.18
2024-01-14T09:24:48.322Z,97.53
2024-01-14T09:27:16.046Z,99.21
2024-01-14T09:29:42.860Z,98.56
2024-01-14T09:32:09.992Z,98.08
2024-01-14T09:34:36.729Z,100.00
2024-01-14T09:37:04.003Z,100.00
2024-01-14T09:39:30.693Z,100.00
2024-01-14T09:42:16.148Z,100.00
2024-01-14T09:44:43.231Z,100.00
2024-01-14T09:47:11.936Z,100.00
2024-01-14T09:49:39.083Z,99.59
2024-01-14T09:52:06.045Z,100.00
2024-01-14T09:54:34.343Z,100.00
2024-01-14T09:57:12.458Z,98.14
2024-01-14T09:59:43.942Z,97.50
2024-01-14T10:02:14.106Z,97.30
2024-01-14T10:04:42.124Z,96.21
2024-01-14T10:07:09.200Z,95.96
2024-01-14T10:09:37.259Z,96.93
2024-01-14T10:12:04.243Z,96.18
2024-01-14T10:14:31.030Z,100.00
2024-01-14T10:17:01.077Z,100.00
2024-01-14T10:19:27.989Z,97.08
2024-01-14T10:22:13.939Z,96.80
2024-01-14T10:24:43.854Z,100.00
2024-01-14T10:27:12.067Z,99.68
2024-01-14T10:29:38.839Z,90.06
2024-01-14T10:32:05.732Z,89.96
2024-01-14T10:34:32.830Z,92.66
2024-01-14T10:37:05.217Z,88.87
2024-01-14T10:39:33.280Z,93.85
2024-01-14T10:42:03.611Z,87.29
2024-01-14T10:44:32.145Z,84.98
2024-01-14T10:47:05.365Z,88.87
2024-01-14T10:49:36.808Z,83.37
2024-01-14T10:52:14.244Z,82.60
2024-01-14T10:54:51.366Z,83.98
2024-01-14T10:57:35.618Z,87.03
2024-01-14T11:00:10.608Z,88.97
2024-01-14T11:02:40.182Z,90.41
2024-01-14T11:05:08.234Z,90.78
2024-01-14T11:07:35.962Z,91.02
2024-01-14T11:10:17.058Z,92.42
2024-01-14T11:12:58.508Z,94.73
2024-01-14T11:15:26.151Z,94.27
2024-01-14T11:18:17.629Z,91.88
2024-01-14T11:20:59.509Z,93.57
2024-01-14T11:23:34.882Z,96.82
2024-01-14T11:26:02.515Z,99.69
2024-01-14T11:28:29.761Z,100.00
2024-01-14T11:30:57.456Z,100.00
2024-01-14T11:33:32.423Z,100.00
2024-01-14T11:36:01.908Z,100.00
2024-01-14T11:38:36.484Z,100.00
2024-01-14T11:41:29.661Z,100.00
2024-01-14T11:44:04.475Z,100.00
2024-01-14T11:46:47.658Z,100.00
2024-01-14T11:49:25.305Z,100.00
2024-01-14T11:51:55.504Z,100.00
2024-01-14T11:54:24.609Z,100.00
2024-01-14T11:56:55.033Z,100.00
2024-01-14T11:59:34.430Z,100.00
2024-01-14T12:02:17.395Z,100.00
2024-01-14T12:04:51.841Z,100.00
2024-01-14T12:07:24.935Z,100.00
2024-01-14T12:10:00.964Z,100.00
2024-01-14T12:12:28.659Z,100.00
2024-01-14T12:14:55.876Z,98.74
2024-01-14T12:17:23.110Z,100.00
2024-01-14T12:20:00.070Z,100.00
2024-01-14T12:22:27.105Z,100.00
2024-01-14T12:24:54.188Z,100.00
2024-01-14T12:27:21.470Z,100.00
2024-01-14T12:29:48.161Z,100.00
2024-01-14T12:32:15.153Z,100.00
2024-01-14T12:34:42.308Z,99.37
2024-01-14T12:37:13.040Z,100.00
2024-01-14T12:39:40.553Z,100.00
2024-01-14T12:42:07.548Z,100.00
2024-01-14T12:44:43.243Z,100.00
2024-01-14T12:47:10.400Z,100.00
2024-01-14T12:49:38.852Z,100.00
2024-01-14T12:52:07.650Z,100.00
2024-01-14T12:54:35.091Z,100.00
2024-01-14T12:57:03.139Z,100.00
2024-01-14T12:59:32.353Z,100.00
2024-01-14T13:02:00.323Z,100.00
2024-01-14T13:04:28.808Z,100.00
2024-01-14T13:06:58.992Z,100.00
2024-01-14T13:09:27.373Z,100.00
2024-01-14T13:11:54.292Z,100.00
2024-01-14T13:14:21.182Z,100.00
2024-01-14T13:16:53.859Z,100.00
2024-01-14T13:19:22.274Z,100.00
2024-01-14T13:21:49.941Z,100.00
2024-01-14T13:24:17.018Z,100.00
2024-01-14T13:26:44.047Z,100.00
2024-01-14T13:29:12.058Z,100.00
2024-01-14T13:31:40.940Z,100.00
2024-01-14T13:34:09.344Z,100.00
2024-01-14T13:36:36.759Z,100.00
2024-01-14T13:39:05.879Z,100.00
2024-01-14T13:41:33.766Z,100.00
2024-01-14T13:44:12.518Z,100.00
2024-01-14T13:46:45.512Z,100.00
2024-01-14T13:49:12.891Z,100.00
2024-01-14T13:51:41.684Z,100.00
2024-01-14T13:54:13.382Z,100.00
2024-01-14T13:56:42.575Z,100.00
2024-01-14T13:59:10.537Z,100.00
2024-01-14T14:01:39.183Z,100.00
2024-01-14T14:04:06.823Z,100.00
2024-01-14T14:06:37.522Z,100.00
2024-01-14T14:09:07.934Z,100.00
2024-01-14T14:11:35.518Z,100.00
2024-01-14T14:14:02.503Z,100.00
2024-01-14T14:16:39.124Z,100.00
2024-01-14T14:19:09.925Z,100.00
2024-01-14T14:21:50.756Z,100.00
2024-01-14T14:24:24.646Z,100.00
2024-01-14T14:26:51.397Z,100.00
2024-01-14T14:29:21.038Z,100.00
2024-01-14T14:31:50.788Z,100.00
2024-01-14T14:34:21.675Z,100.00
2024-01-14T14:36:49.887Z,100.00
2024-01-14T14:39:17.565Z,100.00
2024-01-14T14:41:44.464Z,100.00
2024-01-14T14:44:11.939Z,100.00
2024-01-14T14:46:40.631Z,100.00
2024-01-14T14:49:07.822Z,100.00
2024-01-14T14:51:39.399Z,100.00
2024-01-14T14:54:12.453Z,100.00
2024-01-14T14:56:40.564Z,100.00
2024-01-14T14:59:07.702Z,100.00
2024-01-14T15:01:42.215Z,100.00
2024-01-14T15:04:13.236Z,100.00
2024-01-14T15:06:41.790Z,100.00
2024-01-14T15:09:09.635Z,100.00
2024-01-14T15:11:40.001Z,100.00
2024-01-14T15:14:08.268Z,100.00
2024-01-14T15:16:35.584Z,100.00
2024-01-14T15:19:02.856Z,100.00
2024-01-14T15:21:30.852Z,100.00
2024-01-14T15:23:57.792Z,100.00
2024-01-14T15:26:24.713Z,100.00
2024-01-14T15:28:51.540Z,100.00
2024-01-14T15:31:20.861Z,100.00
2024-01-14T15:33:48.210Z,100.00
2024-01-14T15:36:15.492Z,100.00
2024-01-14T15:38:42.622Z,100.00
2024-01-14T15:41:09.458Z,100.00
2024-01-14T15:43:36.496Z,100.00
2024-01-14T15:46:03.932Z,100.00
2024-01-14T15:48:31.322Z,100.00
2024-01-14T15:51:04.608Z,100.00
2024-01-14T15:53:36.361Z,100.00
2024-01-14T15:56:07.149Z,100.00
2024-01-14T15:58:39.368Z,100.00
2024-01-14T16:01:10.676Z,100.00
2024-01-14T16:03:40.562Z,100.00
2024-01-14T16:06:09.212Z,100.00
2024-01-14T16:08:36.760Z,100.00
2024-01-14T16:11:06.586Z,100.00
2024-01-14T16:13:38.147Z,100.00
2024-01-14T16:16:06.592Z,100.00
2024-01-14T16:18:34.696Z,100.00
2024-01-14T16:21:05.437Z,100.00
2024-01-14T16:23:35.198Z,100.00
2024-01-14T16:26:03.253Z,100.00
2024-01-14T16:28:30.466Z,100.00
2024-01-14T16:31:06.042Z,100.00
2024-01-14T16:33:39.638Z,100.00
2024-01-14T16:36:07.359Z,100.00
2024-01-14T16:38:34.599Z,100.00
2024-01-14T16:41:04.943Z,100.00
2024-01-14T16:43:33.738Z,100.00
2024-01-14T16:46:00.787Z,100.00
2024-01-14T16:48:28.041Z,100.00
2024-01-14T16:51:05.864Z,100.00
2024-01-14T16:53:36.781Z,100.00
2024-01-14T16:56:05.233Z,100.00
2024-01-14T16:58:32.608Z,100.00
2024-01-14T17:01:12.349Z,100.00
2024-01-14T17:03:44.742Z,100.00
2024-01-14T17:06:15.461Z,100.00
2024-01-14T17:08:48.029Z,100.00
2024-01-14T17:11:16.596Z,100.00
2024-01-14T17:13:43.735Z,100.00
2024-01-14T17:16:18.814Z,100.00
2024-01-14T17:18:45.939Z,100.00
2024-01-14T17:21:12.780Z,100.00
2024-01-14T17:23:39.613Z,100.00
2024-01-14T17:26:09.513Z,100.00
2024-01-14T17:28:42.628Z,100.00
2024-01-14T17:31:14.733Z,100.00
2024-01-14T17:33:43.527Z,100.00
2024-01-14T17:36:12.059Z,100.00
2024-01-14T17:38:39.703Z,100.00
2024-01-14T17:41:06.714Z,100.00
2024-01-14T17:43:33.540Z,100.00
2024-01-14T17:46:07.130Z,100.00
2024-01-14T17:48:40.260Z,100.00
2024-01-14T17:51:09.353Z,100.00
2024-01-14T17:53:37.168Z,100.00
2024-01-14T17:56:04.818Z,100.00
2024-01-14T17:58:31.711Z,100.00
2024-01-14T18:00:59.438Z,100.00
2024-01-14T18:03:26.464Z,100.00
2024-01-14T18:05:53.606Z,100.00
2024-01-14T18:08:20.798Z,100.00
2024-01-14T18:10:50.178Z,100.00
2024-01-14T18:13:17.508Z,100.00
2024-01-14T18:15:45.297Z,100.00
2024-01-14T18:18:13.654Z,100.00
2024-01-14T18:20:41.362Z,100.00
2024-01-14T18:23:12.832Z,100.00
2024-01-14T18:25:45.666Z,100.00
2024-01-14T18:28:14.176Z,100.00
2024-01-14T18:30:41.568Z,100.00
2024-01-14T18:33:11.830Z,100.00
2024-01-14T18:35:45.552Z,100.00
2024-01-14T18:38:14.892Z,100.00
2024-01-14T18:40:41.915Z,100.00
2024-01-14T18:43:12.128Z,100.00
2024-01-14T18:45:39.614Z,100.00
2024-01-14T18:48:07.604Z,100.00
2024-01-14T18:50:35.645Z,100.00
2024-01-14T18:53:03.769Z,100.00
2024-01-14T18:55:30.576Z,100.00
2024-01-14T18:57:58.428Z,100.00
2024-01-14T19:02:52.016Z,100.00
2024-01-14T19:05:19.029Z,100.00
2024-01-14T19:07:45.781Z,100.00
2024-01-14T19:10:12.595Z,100.00
2024-01-14T19:12:39.526Z,100.00
2024-01-14T19:15:07.045Z,100.00
2024-01-14T19:17:34.528Z,100.00
2024-01-14T19:20:01.989Z,100.00
2024-01-14T19:22:29.106Z,100.00
2024-01-14T19:24:56.025Z,100.00
2024-01-14T19:27:23.622Z,100.00
2024-01-14T19:29:53.133Z,100.00
2024-01-14T19:32:20.384Z,100.00
2024-01-14T19:34:47.394Z,100.00
2024-01-14T19:37:14.298Z,100.00
2024-01-14T19:39:41.646Z,100.00
2024-01-14T19:42:10.024Z,100.00
2024-01-14T19:44:37.204Z,100.00
2024-01-14T19:47:04.044Z,100.00
2024-01-14T19:49:31.006Z,100.00
2024-01-14T19:51:58.080Z,100.00
2024-01-14T19:54:27.866Z,100.00
2024-01-14T19:56:54.834Z,100.00
2024-01-14T19:59:22.364Z,100.00
2024-01-14T20:01:50.141Z,100.00
2024-01-14T20:04:17.410Z,100.00
2024-01-14T20:06:49.878Z,100.00
2024-01-14T20:09:23.251Z,100.00
2024-01-14T20:11:53.272Z,100.00
2024-01-14T20:14:20.624Z,100.00
2024-01-14T20:16:47.469Z,100.00
2024-01-14T20:19:14.638Z,100.00
2024-01-14T20:21:41.927Z,100.00
2024-01-14T20:24:12.938Z,100.00
2024-01-14T20:26:40.286Z,100.00
2024-01-14T20:29:07.013Z,100.00
2024-01-14T20:31:36.097Z,100.00
2024-01-14T20:34:03.542Z,100.00
2024-01-14T20:36:30.705Z,100.00
2024-01-14T20:38:58.048Z,100.00
2024-01-14T20:41:25.111Z,100.00
2024-01-14T20:43:52.137Z,100.00
2024-01-14T20:46:19.171Z,100.00
2024-01-14T20:48:48.189Z,100.00
2024-01-14T20:51:15.805Z,100.00
2024-01-14T20:53:42.836Z,100.00
2024-01-14T20:56:09.741Z,100.00
2024-01-14T20:58:36.559Z,100.00
2024-01-14T21:01:07.127Z,100.00
2024-01-14T21:03:34.825Z,100.00
2024-01-14T21:06:02.476Z,100.00
2024-01-14T21:08:29.649Z,100.00
2024-01-14T21:10:56.427Z,100.00
2024-01-14T21:13:23.887Z,100.00
2024-01-14T21:15:52.904Z,100.00
2024-01-14T21:18:23.705Z,100.00
2024-01-14T21:20:51.209Z,100.00
2024-01-14T21:23:19.276Z,100.00
2024-01-14T21:25:47.124Z,100.00
2024-01-14T21:28:14.425Z,100.00
2024-01-14T21:30:41.624Z,100.00
2024-01-14T21:33:08.840Z,100.00
2024-01-14T21:35:35.616Z,100.00
2024-01-14T21:38:02.370Z,100.00
2024-01-14T21:40:29.184Z,100.00
2024-01-14T21:42:55.924Z,100.00
2024-01-14T21:45:22.864Z,100.00
2024-01-14T21:47:49.745Z,100.00
2024-01-14T21:50:16.618Z,100.00
2024-01-14T21:52:43.798Z,100.00
2024-01-14T21:55:13.147Z,100.00
2024-01-14T21:57:41.851Z,100.00
2024-01-14T22:00:10.538Z,100.00
2024-01-14T22:02:37.813Z,100.00
2024-01-14T22:05:05.192Z,100.00
2024-01-14T22:07:32.128Z,100.00
2024-01-14T22:09:58.893Z,100.00
2024-01-14T22:12:26.133Z,100.00
2024-01-14T22:14:52.960Z,100.00
2024-01-14T22:17:19.732Z,100.00
2024-01-14T22:19:46.779Z,100.00
2024-01-14T22:22:13.572Z,100.00
2024-01-14T22:24:43.593Z,100.00
2024-01-14T22:27:10.539Z,100.00
2024-01-14T22:29:37.324Z,100.00
2024-01-14T22:32:04.320Z,100.00
2024-01-14T22:34:31.202Z,100.00
2024-01-14T22:36:58.028Z,100.00
2024-01-14T22:39:24.910Z,100.00
2024-01-14T22:41:51.707Z,100.00
2024-01-14T22:44:18.466Z,100.00
2024-01-14T22:46:45.257Z,100.00
2024-01-14T22:49:12.218Z,100.00
2024-01-14T22:51:43.938Z,100.00
2024-01-14T22:54:12.550Z,100.00
2024-01-14T22:56:39.631Z,100.00
2024-01-14T22:59:06.781Z,100.00
2024-01-14T23:01:33.474Z,100.00
2024-01-14T23:04:01.240Z,100.00
2024-01-14T23:06:28.178Z,100.00
2024-01-14T23:08:55.021Z,100.00
2024-01-14T23:11:21.996Z,100.00
2024-01-14T23:13:48.753Z,100.00
2024-01-14T23:16:15.590Z,100.00
2024-01-14T23:18:42.559Z,100.00
2024-01-14T23:21:09.398Z,100.00
2024-01-14T23:23:36.175Z,100.00
2024-01-14T23:26:02.981Z,100.00
2024-01-14T23:28:29.775Z,100.00
2024-01-14T23:30:56.716Z,100.00
2024-01-14T23:33:23.681Z,100.00
2024-01-14T23:35:50.502Z,100.00
2024-01-14T23:38:17.234Z,100.00
2024-01-14T23:40:43.954Z,100.00
2024-01-14T23:43:10.746Z,100.00
2024-01-14T23:45:39.162Z,100.00
2024-01-14T23:48:07.032Z,100.00
2024-01-14T23:50:33.866Z,100.00
2024-01-14T23:53:01.243Z,100.00
2024-01-14T23:55:28.101Z,100.00
2024-01-14T23:57:54.938Z,100.00
